F/v_l'omerta — FHXG — position and weather

sailwx.info

Track history (hours):
 
Tides and Currents Weather Stations Pressure Air Temp Water Temp Dewpoint Dewpoint Depression Visibility Wind Speed Wind Dir Waves Ship Positions

F/v_l'omerta

Last reported at 2016-Jul-27 05:04 UTC. Time now 2016-Jul-27 17:20 UTC.
Position N 46°16' W 002°42'.

Length 18 m.

Type: Fishing. MMSI: 227903000.

Date/timePositionNaut miles runAvg speedWind from/ knotsBaromVisibWave heightAir tempDewpointWater temp
2016-Jul-27 05:04N 46°16' W 002°42'2 4.1
2016-Jul-27 04:29N 46°18' W 002°42'3 1.3
2016-Jul-27 02:33N 46°18' W 002°39'0 0.4
2016-Jul-27 01:31N 46°18' W 002°39'29 1.7
2016-Jul-26 08:25N 46°41' W 003°04'4 4.0
2016-Jul-26 07:19N 46°37' W 003°02'27 0.9
2016-Jul-25 02:31N 46°21' W 002°30'7 6.9
2016-Jul-25 01:33N 46°23' W 002°21'8 7.4
2016-Jul-25 00:25N 46°25' W 002°09'7 7.7
2016-Jul-24 23:33N 46°26' W 001°59'8 7.8
2016-Jul-24 22:33N 46°28' W 001°49'2 2.0
2016-Jul-24 21:33N 46°30' W 001°47'4 3.6
2016-Jul-24 20:33N 46°28' W 001°52'9 9.4
2016-Jul-24 19:33N 46°27' W 002°05'26 8.4
2016-Jul-24 16:28N 46°19' W 002°41'12 3.6
2016-Jul-24 13:09N 46°09' W 002°32'2 3.0
2016-Jul-24 12:30N 46°07' W 002°31'3 2.1
2016-Jul-24 11:08N 46°10' W 002°31'2 0.8
2016-Jul-24 08:10N 46°09' W 002°28'3 3.9
2016-Jul-24 07:17N 46°11' W 002°32'3 4.0
2016-Jul-24 06:26N 46°12' W 002°37'3 3.5
2016-Jul-24 05:32N 46°14' W 002°41'4 4.2
2016-Jul-24 04:33N 46°18' W 002°42'5 3.6
2016-Jul-24 03:13N 46°19' W 002°36'1 0.9
2016-Jul-24 02:15N 46°19' W 002°37'1 0.8
2016-Jul-24 01:23N 46°19' W 002°38'1 0.7
2016-Jul-24 00:13N 46°19' W 002°39'1 0.5
2016-Jul-23 21:20N 46°19' W 002°41'2 0.1
2016-Jul-22 23:29N 46°22' W 002°41'9 4.1
2016-Jul-22 21:18N 46°25' W 002°53'6 0.8
2016-Jul-22 14:19N 46°31' W 002°55'25 2.5
2016-Jul-22 04:33N 46°24' W 002°20'9 9.0
2016-Jul-22 03:33N 46°25' W 002°07'9 8.8
2016-Jul-22 02:33N 46°27' W 001°55'6 5.7
2016-Jul-22 01:33N 46°30' W 001°48'0 0.2
2016-Jul-22 00:33N 46°30' W 001°47'0 0.0
2016-Jul-21 23:33N 46°30' W 001°47'0 0.0
2016-Jul-21 11:18N 46°30' W 001°47'0 0.0
2016-Jul-21 10:33N 46°30' W 001°47'0 0.0
2016-Jul-21 09:33N 46°30' W 001°47'0 0.0
2016-Jul-21 08:33N 46°30' W 001°47'0 0.1
2016-Jul-21 06:33N 46°30' W 001°47'0 0.1
2016-Jul-21 05:33N 46°30' W 001°48'0 0.0
2016-Jul-21 01:23N 46°30' W 001°48'0 0.2
2016-Jul-21 00:33N 46°30' W 001°47'0 0.0
2016-Jul-20 16:33N 46°30' W 001°48'5 4.8
2016-Jul-20 15:33N 46°28' W 001°54'1010.0
2016-Jul-20 14:33N 46°27' W 002°09'2110.1
2016-Jul-20 12:29N 46°23' W 002°38'11 3.5
2016-Jul-20 09:15N 46°11' W 002°38'4 3.7
2016-Jul-20 08:17N 46°08' W 002°41'2 2.6
2016-Jul-20 07:28N 46°10' W 002°39'4 4.0
2016-Jul-20 06:30N 46°14' W 002°41'3 3.6
2016-Jul-20 05:33N 46°17' W 002°42'4 4.0
2016-Jul-20 04:33N 46°21' W 002°40'2 1.9
2016-Jul-20 03:30N 46°22' W 002°38'1 1.4
2016-Jul-20 02:33N 46°23' W 002°37'3 2.4
2016-Jul-20 01:29N 46°24' W 002°33'1 1.5
2016-Jul-20 00:33N 46°23' W 002°35'1 1.4
2016-Jul-19 23:33N 46°23' W 002°37'1 1.3
2016-Jul-19 22:33N 46°24' W 002°36'1 1.4
2016-Jul-19 21:33N 46°25' W 002°35'2 2.1
2016-Jul-19 20:33N 46°24' W 002°37'4 3.9
2016-Jul-19 19:33N 46°20' W 002°40'3 3.0
2016-Jul-19 18:31N 46°18' W 002°42'4 4.0
2016-Jul-19 17:27N 46°14' W 002°40'2 2.0
2016-Jul-19 16:33N 46°15' W 002°42'4 3.8
2016-Jul-19 15:33N 46°13' W 002°46'3 0.5
2016-Jul-19 09:16N 46°13' W 002°41'1 0.8
2016-Jul-19 08:32N 46°13' W 002°41'3 3.1
2016-Jul-19 07:33N 46°15' W 002°43'6 1.9
2016-Jul-19 04:33N 46°21' W 002°40'9 9.3
2016-Jul-19 03:33N 46°23' W 002°27'9 9.4
2016-Jul-19 02:33N 46°25' W 002°14'9 8.9
2016-Jul-19 01:33N 46°26' W 002°01'9 9.3
2016-Jul-19 00:33N 46°28' W 001°48'2 0.1
2016-Jul-18 09:27N 46°30' W 001°47'0 0.0
2016-Jul-18 08:33N 46°30' W 001°47'0 0.0
2016-Jul-18 07:33N 46°30' W 001°47'0 0.0
2016-Jul-18 06:33N 46°30' W 001°47'0 0.0
2016-Jul-17 23:03N 46°30' W 001°47'0 0.1
2016-Jul-17 22:34N 46°30' W 001°47'0 0.0
2016-Jul-17 17:33N 46°30' W 001°47'  
Track history (hours):
 
Tides and Currents Weather Stations Pressure Air Temp Water Temp Dewpoint Dewpoint Depression Visibility Wind Speed Wind Dir Waves Ship Positions

F/v_l'omerta

Last reported at 2016-Jul-27 05:04 UTC. Time now 2016-Jul-27 17:20 UTC.
Position N 46°16' W 002°42'.

Length 18 m.

Type: Fishing. MMSI: 227903000.

Date/timePositionNaut miles runAvg speedWind from/ knotsBaromVisibWave heightAir tempDewpointWater temp
2016-Jul-27 05:04N 46°16' W 002°42'2 4.1
2016-Jul-27 04:29N 46°18' W 002°42'3 1.3
2016-Jul-27 02:33N 46°18' W 002°39'0 0.4
2016-Jul-27 01:31N 46°18' W 002°39'29 1.7
2016-Jul-26 08:25N 46°41' W 003°04'4 4.0
2016-Jul-26 07:19N 46°37' W 003°02'27 0.9
2016-Jul-25 02:31N 46°21' W 002°30'7 6.9
2016-Jul-25 01:33N 46°23' W 002°21'8 7.4
2016-Jul-25 00:25N 46°25' W 002°09'7 7.7
2016-Jul-24 23:33N 46°26' W 001°59'8 7.8
2016-Jul-24 22:33N 46°28' W 001°49'2 2.0
2016-Jul-24 21:33N 46°30' W 001°47'4 3.6
2016-Jul-24 20:33N 46°28' W 001°52'9 9.4
2016-Jul-24 19:33N 46°27' W 002°05'26 8.4
2016-Jul-24 16:28N 46°19' W 002°41'12 3.6
2016-Jul-24 13:09N 46°09' W 002°32'2 3.0
2016-Jul-24 12:30N 46°07' W 002°31'3 2.1
2016-Jul-24 11:08N 46°10' W 002°31'2 0.8
2016-Jul-24 08:10N 46°09' W 002°28'3 3.9
2016-Jul-24 07:17N 46°11' W 002°32'3 4.0
2016-Jul-24 06:26N 46°12' W 002°37'3 3.5
2016-Jul-24 05:32N 46°14' W 002°41'4 4.2
2016-Jul-24 04:33N 46°18' W 002°42'5 3.6
2016-Jul-24 03:13N 46°19' W 002°36'1 0.9
2016-Jul-24 02:15N 46°19' W 002°37'1 0.8
2016-Jul-24 01:23N 46°19' W 002°38'1 0.7
2016-Jul-24 00:13N 46°19' W 002°39'1 0.5
2016-Jul-23 21:20N 46°19' W 002°41'2 0.1
2016-Jul-22 23:29N 46°22' W 002°41'9 4.1
2016-Jul-22 21:18N 46°25' W 002°53'6 0.8
2016-Jul-22 14:19N 46°31' W 002°55'25 2.5
2016-Jul-22 04:33N 46°24' W 002°20'9 9.0
2016-Jul-22 03:33N 46°25' W 002°07'9 8.8
2016-Jul-22 02:33N 46°27' W 001°55'6 5.7
2016-Jul-22 01:33N 46°30' W 001°48'0 0.2
2016-Jul-22 00:33N 46°30' W 001°47'0 0.0
2016-Jul-21 23:33N 46°30' W 001°47'0 0.0
2016-Jul-21 11:18N 46°30' W 001°47'0 0.0
2016-Jul-21 10:33N 46°30' W 001°47'0 0.0
2016-Jul-21 09:33N 46°30' W 001°47'0 0.0
2016-Jul-21 08:33N 46°30' W 001°47'0 0.1
2016-Jul-21 06:33N 46°30' W 001°47'0 0.1
2016-Jul-21 05:33N 46°30' W 001°48'0 0.0
2016-Jul-21 01:23N 46°30' W 001°48'0 0.2
2016-Jul-21 00:33N 46°30' W 001°47'0 0.0
2016-Jul-20 16:33N 46°30' W 001°48'5 4.8
2016-Jul-20 15:33N 46°28' W 001°54'1010.0
2016-Jul-20 14:33N 46°27' W 002°09'2110.1
2016-Jul-20 12:29N 46°23' W 002°38'11 3.5
2016-Jul-20 09:15N 46°11' W 002°38'4 3.7
2016-Jul-20 08:17N 46°08' W 002°41'2 2.6
2016-Jul-20 07:28N 46°10' W 002°39'4 4.0
2016-Jul-20 06:30N 46°14' W 002°41'3 3.6
2016-Jul-20 05:33N 46°17' W 002°42'4 4.0
2016-Jul-20 04:33N 46°21' W 002°40'2 1.9
2016-Jul-20 03:30N 46°22' W 002°38'1 1.4
2016-Jul-20 02:33N 46°23' W 002°37'3 2.4
2016-Jul-20 01:29N 46°24' W 002°33'1 1.5
2016-Jul-20 00:33N 46°23' W 002°35'1 1.4
2016-Jul-19 23:33N 46°23' W 002°37'1 1.3
2016-Jul-19 22:33N 46°24' W 002°36'1 1.4
2016-Jul-19 21:33N 46°25' W 002°35'2 2.1
2016-Jul-19 20:33N 46°24' W 002°37'4 3.9
2016-Jul-19 19:33N 46°20' W 002°40'3 3.0
2016-Jul-19 18:31N 46°18' W 002°42'4 4.0
2016-Jul-19 17:27N 46°14' W 002°40'2 2.0
2016-Jul-19 16:33N 46°15' W 002°42'4 3.8
2016-Jul-19 15:33N 46°13' W 002°46'3 0.5
2016-Jul-19 09:16N 46°13' W 002°41'1 0.8
2016-Jul-19 08:32N 46°13' W 002°41'3 3.1
2016-Jul-19 07:33N 46°15' W 002°43'6 1.9
2016-Jul-19 04:33N 46°21' W 002°40'9 9.3
2016-Jul-19 03:33N 46°23' W 002°27'9 9.4
2016-Jul-19 02:33N 46°25' W 002°14'9 8.9
2016-Jul-19 01:33N 46°26' W 002°01'9 9.3
2016-Jul-19 00:33N 46°28' W 001°48'2 0.1
2016-Jul-18 09:27N 46°30' W 001°47'0 0.0
2016-Jul-18 08:33N 46°30' W 001°47'0 0.0
2016-Jul-18 07:33N 46°30' W 001°47'0 0.0
2016-Jul-18 06:33N 46°30' W 001°47'0 0.0
2016-Jul-17 23:03N 46°30' W 001°47'0 0.1
2016-Jul-17 22:34N 46°30' W 001°47'0 0.0
2016-Jul-17 17:33N 46°30' W 001°47'  

Dump ship's entire track history